createdAt,value
2018-04-16T00:01:30.081Z,22.30
2018-04-16T00:03:57.645Z,22.90
2018-04-16T00:06:25.247Z,19.37
2018-04-16T00:08:52.771Z,16.67
2018-04-16T00:11:20.401Z,24.50
2018-04-16T00:13:48.029Z,18.57
2018-04-16T00:16:15.587Z,21.80
2018-04-16T00:18:43.175Z,17.70
2018-04-16T00:21:10.715Z,22.53
2018-04-16T00:23:38.296Z,29.50
2018-04-16T00:26:05.867Z,21.93
2018-04-16T00:28:34.618Z,31.80
2018-04-16T00:31:02.170Z,21.80
2018-04-16T00:33:35.408Z,24.10
2018-04-16T00:36:18.726Z,25.17
2018-04-16T00:38:52.006Z,19.70
2018-04-16T00:41:25.111Z,22.57
2018-04-16T00:43:58.286Z,23.13
2018-04-16T00:46:31.463Z,24.20
2018-04-16T00:49:04.709Z,23.63
2018-04-16T00:51:37.868Z,25.70
2018-04-16T00:54:24.769Z,18.77
2018-04-16T00:56:57.847Z,20.60
2018-04-16T00:59:31.039Z,23.57
2018-04-16T01:02:04.947Z,19.23
2018-04-16T01:04:38.080Z,20.73
2018-04-16T01:07:11.196Z,20.83
2018-04-16T01:09:44.332Z,20.63
2018-04-16T01:12:17.480Z,22.60
2018-04-16T01:14:50.596Z,18.93
2018-04-16T01:17:24.482Z,23.77
2018-04-16T01:19:57.654Z,24.00
2018-04-16T01:22:30.768Z,23.03
2018-04-16T01:25:03.860Z,18.27
2018-04-16T01:27:37.051Z,29.03
2018-04-16T01:30:10.197Z,22.13
2018-04-16T01:32:43.263Z,20.90
2018-04-16T01:35:16.399Z,25.00
2018-04-16T01:37:49.737Z,18.77
2018-04-16T01:40:23.008Z,20.13
2018-04-16T01:42:56.145Z,26.27
2018-04-16T01:45:29.378Z,19.07
2018-04-16T01:48:02.478Z,24.93
2018-04-16T01:50:36.869Z,23.80
2018-04-16T01:53:10.025Z,24.37
2018-04-16T01:55:43.302Z,17.73
2018-04-16T01:58:16.533Z,29.70
2018-04-16T02:00:49.792Z,20.53
2018-04-16T02:03:22.841Z,22.20
2018-04-16T02:05:56.032Z,23.57
2018-04-16T02:08:29.112Z,27.93
2018-04-16T02:11:02.218Z,19.83
2018-04-16T02:13:35.342Z,21.40
2018-04-16T02:16:08.531Z,25.63
2018-04-16T02:18:42.548Z,24.73
2018-04-16T02:21:15.642Z,21.63
2018-04-16T02:23:48.810Z,19.37
2018-04-16T02:26:22.717Z,25.20
2018-04-16T02:28:55.953Z,22.03
2018-04-16T02:31:29.149Z,25.43
2018-04-16T02:34:02.343Z,22.33
2018-04-16T02:36:35.501Z,22.20
2018-04-16T02:39:08.626Z,25.43
2018-04-16T02:41:41.921Z,21.13
2018-04-16T02:44:15.065Z,21.33
2018-04-16T02:46:49.248Z,24.83
2018-04-16T02:49:22.545Z,23.37
2018-04-16T02:51:55.645Z,20.03
2018-04-16T02:54:28.930Z,27.07
2018-04-16T02:57:02.191Z,23.10
2018-04-16T02:59:36.283Z,23.00
2018-04-16T03:02:09.465Z,24.30
2018-04-16T03:04:42.789Z,26.60
2018-04-16T03:07:16.049Z,23.83
2018-04-16T03:09:49.348Z,23.13
2018-04-16T03:12:23.257Z,29.63
2018-04-16T03:14:56.352Z,26.00
2018-04-16T03:17:30.244Z,27.47
2018-04-16T03:20:03.519Z,28.13
2018-04-16T03:22:36.730Z,24.90
2018-04-16T03:25:10.692Z,27.80
2018-04-16T03:30:49.335Z,28.90
2018-04-16T03:33:22.673Z,34.70
2018-04-16T03:35:56.587Z,25.77
2018-04-16T03:38:37.152Z,27.60
2018-04-16T03:41:10.469Z,26.03
2018-04-16T03:43:43.591Z,28.80
2018-04-16T03:46:16.755Z,34.77
2018-04-16T03:48:50.009Z,31.20
2018-04-16T03:51:32.229Z,29.20
2018-04-16T03:54:00.575Z,28.03
2018-04-16T03:56:28.103Z,30.50
2018-04-16T03:58:55.778Z,32.97
2018-04-16T04:01:23.349Z,30.27
2018-04-16T04:03:50.921Z,32.67
2018-04-16T04:06:18.465Z,25.67
2018-04-16T04:08:46.282Z,27.37
2018-04-16T04:11:13.831Z,33.23
2018-04-16T04:13:41.404Z,26.70
2018-04-16T04:16:09.002Z,32.37
2018-04-16T04:18:39.892Z,30.73
2018-04-16T04:21:07.485Z,33.87
2018-04-16T04:23:46.798Z,24.87
2018-04-16T04:26:26.092Z,24.60
2018-04-16T04:29:05.377Z,29.70
2018-04-16T04:31:32.972Z,29.53
2018-04-16T04:34:00.638Z,31.23
2018-04-16T04:36:28.161Z,31.00
2018-04-16T04:38:57.744Z,23.70
2018-04-16T04:41:26.080Z,33.90
2018-04-16T04:43:53.625Z,27.10
2018-04-16T04:46:21.267Z,27.37
2018-04-16T04:48:48.818Z,31.20
2018-04-16T04:51:21.677Z,25.90
2018-04-16T04:53:49.282Z,28.30
2018-04-16T04:56:16.919Z,27.70
2018-04-16T04:58:45.251Z,33.53
2018-04-16T05:01:12.864Z,31.97
2018-04-16T05:03:40.428Z,28.23
2018-04-16T05:06:08.001Z,24.47
2018-04-16T05:08:35.600Z,26.73
2018-04-16T05:11:03.233Z,24.43
2018-04-16T05:13:30.772Z,34.47
2018-04-16T05:15:58.381Z,24.73
2018-04-16T05:18:25.910Z,29.57
2018-04-16T05:20:53.473Z,30.73
2018-04-16T05:23:21.064Z,25.60
2018-04-16T05:25:48.624Z,33.93
2018-04-16T05:28:16.239Z,31.07
2018-04-16T05:30:43.834Z,29.47
2018-04-16T05:33:20.792Z,32.67
2018-04-16T05:35:48.340Z,29.27
2018-04-16T05:38:15.896Z,33.27
2018-04-16T05:40:43.482Z,35.90
2018-04-16T05:43:11.150Z,29.10
2018-04-16T05:45:38.720Z,28.13
2018-04-16T05:48:06.318Z,30.63
2018-04-16T05:50:33.866Z,35.17
2018-04-16T05:53:02.194Z,27.37
2018-04-16T05:55:29.792Z,33.17
2018-04-16T05:57:59.463Z,33.90
2018-04-16T06:00:27.107Z,34.43
2018-04-16T06:02:54.668Z,28.80
2018-04-16T06:05:22.208Z,33.37
2018-04-16T06:07:50.546Z,32.67
2018-04-16T06:10:18.168Z,31.20
2018-04-16T06:12:45.738Z,30.70
2018-04-16T06:15:13.772Z,33.50
2018-04-16T06:17:42.090Z,28.93
2018-04-16T06:20:10.702Z,30.93
2018-04-16T06:22:38.266Z,31.90
2018-04-16T06:25:05.866Z,30.57
2018-04-16T06:27:33.418Z,31.80
2018-04-16T06:30:01.001Z,28.03
2018-04-16T06:32:28.543Z,30.83
2018-04-16T06:34:56.121Z,26.63
2018-04-16T06:37:23.660Z,29.27
2018-04-16T06:39:51.312Z,37.03
2018-04-16T06:42:18.912Z,33.40
2018-04-16T06:44:47.056Z,37.10
2018-04-16T06:47:14.612Z,33.10
2018-04-16T06:49:42.194Z,26.03
2018-04-16T06:52:09.921Z,29.13
2018-04-16T06:54:38.437Z,32.97
2018-04-16T06:57:06.051Z,165.73
2018-04-16T06:59:33.686Z,29.70
2018-04-16T07:02:01.458Z,28.47
2018-04-16T07:04:29.095Z,34.37
2018-04-16T07:06:57.890Z,36.10
2018-04-16T07:09:25.522Z,31.57
2018-04-16T07:11:53.221Z,31.10
2018-04-16T07:14:20.866Z,32.77
2018-04-16T07:16:48.558Z,25.90
2018-04-16T07:19:17.765Z,30.97
2018-04-16T07:21:45.406Z,28.27
2018-04-16T07:24:13.108Z,27.70
2018-04-16T07:26:40.718Z,33.63
2018-04-16T07:29:08.261Z,24.73
2018-04-16T07:31:35.844Z,30.27
2018-04-16T07:34:03.426Z,29.10
2018-04-16T07:36:31.044Z,27.27
2018-04-16T07:38:58.786Z,24.33
2018-04-16T07:41:27.258Z,27.07
2018-04-16T07:43:56.415Z,32.27
2018-04-16T07:46:24.071Z,24.90
2018-04-16T07:48:51.824Z,25.13
2018-04-16T07:51:19.623Z,23.33
2018-04-16T07:53:47.252Z,25.93
2018-04-16T07:56:14.983Z,25.43
2018-04-16T07:58:42.672Z,22.23
2018-04-16T08:01:11.170Z,24.60
2018-04-16T08:03:38.827Z,26.20
2018-04-16T08:06:06.578Z,29.67
2018-04-16T08:08:34.412Z,32.57
2018-04-16T08:11:03.972Z,27.27
2018-04-16T08:13:31.919Z,29.10
2018-04-16T08:16:00.333Z,26.07
2018-04-16T08:18:28.162Z,25.17
2018-04-16T08:20:56.739Z,26.17
2018-04-16T08:23:24.493Z,22.53
2018-04-16T08:25:54.060Z,31.30
2018-04-16T08:28:21.804Z,21.70
2018-04-16T08:30:50.292Z,26.43
2018-04-16T08:33:18.813Z,21.80
2018-04-16T08:35:47.354Z,23.33
2018-04-16T08:38:15.258Z,21.77
2018-04-16T08:40:44.858Z,24.97
2018-04-16T08:43:12.726Z,29.80
2018-04-16T08:45:40.660Z,27.10
2018-04-16T08:48:08.495Z,24.47
2018-04-16T08:50:37.056Z,26.20
2018-04-16T08:53:04.939Z,25.70
2018-04-16T08:55:32.636Z,26.70
2018-04-16T08:58:00.257Z,24.57
2018-04-16T09:00:28.047Z,27.77
2018-04-16T09:02:57.000Z,24.57
2018-04-16T09:05:24.720Z,23.17
2018-04-16T09:07:52.345Z,24.27
2018-04-16T09:10:20.100Z,22.17
2018-04-16T09:12:48.484Z,21.70
2018-04-16T09:15:16.152Z,19.80
2018-04-16T09:17:43.956Z,26.53
2018-04-16T09:20:11.886Z,27.27
2018-04-16T09:22:39.449Z,26.00
2018-04-16T09:25:07.710Z,28.53
2018-04-16T09:27:36.223Z,23.83
2018-04-16T09:30:16.189Z,20.17
2018-04-16T09:32:44.077Z,29.17
2018-04-16T09:35:12.672Z,22.70
2018-04-16T09:37:41.989Z,33.47
2018-04-16T09:40:12.319Z,32.17
2018-04-16T09:42:40.286Z,26.53
2018-04-16T09:45:07.947Z,25.20
2018-04-16T09:47:36.562Z,26.93
2018-04-16T09:50:04.268Z,27.23
2018-04-16T09:52:31.983Z,25.10
2018-04-16T09:54:59.766Z,22.37
2018-04-16T09:57:27.374Z,27.47
2018-04-16T09:59:55.017Z,30.53
2018-04-16T10:02:25.438Z,30.40
2018-04-16T10:04:53.196Z,21.27
2018-04-16T10:07:20.920Z,28.90
2018-04-16T10:09:48.580Z,25.70
2018-04-16T10:12:19.557Z,25.73
2018-04-16T10:14:47.239Z,26.40
2018-04-16T10:17:14.861Z,27.73
2018-04-16T10:19:42.950Z,24.60
2018-04-16T10:22:10.824Z,30.07
2018-04-16T10:24:39.222Z,26.00
2018-04-16T10:27:08.090Z,28.40
2018-04-16T10:29:36.274Z,25.97
2018-04-16T10:32:04.030Z,22.87
2018-04-16T10:34:32.524Z,22.93
2018-04-16T10:37:01.120Z,27.80
2018-04-16T10:39:29.569Z,27.97
2018-04-16T10:41:57.199Z,32.40
2018-04-16T10:44:24.844Z,30.03
2018-04-16T10:46:52.524Z,25.13
2018-04-16T10:49:20.307Z,29.23
2018-04-16T10:51:48.854Z,25.57
2018-04-16T10:54:16.512Z,27.90
2018-04-16T10:56:45.002Z,24.70
2018-04-16T10:59:14.429Z,33.37
2018-04-16T11:01:42.076Z,25.53
2018-04-16T11:04:10.956Z,27.40
2018-04-16T11:06:38.762Z,26.43
2018-04-16T11:09:06.474Z,30.60
2018-04-16T11:11:34.090Z,26.43
2018-04-16T11:14:01.760Z,23.97
2018-04-16T11:16:29.446Z,27.67
2018-04-16T11:18:57.018Z,26.47
2018-04-16T11:21:24.551Z,28.90
2018-04-16T11:23:52.116Z,28.27
2018-04-16T11:26:19.652Z,27.53
2018-04-16T11:28:47.211Z,31.37
2018-04-16T11:31:15.452Z,25.47
2018-04-16T11:33:43.039Z,28.50
2018-04-16T11:36:10.545Z,29.53
2018-04-16T11:38:38.087Z,24.73
2018-04-16T11:41:05.614Z,29.63
2018-04-16T11:43:33.162Z,25.40
2018-04-16T11:46:00.729Z,27.93
2018-04-16T11:48:28.280Z,24.60
2018-04-16T11:50:55.877Z,20.93
2018-04-16T11:53:23.526Z,19.97
2018-04-16T11:55:51.052Z,21.93
2018-04-16T11:58:19.407Z,25.00
2018-04-16T12:00:46.960Z,17.97
2018-04-16T12:03:14.508Z,18.27
2018-04-16T12:05:42.067Z,15.50
2018-04-16T12:08:09.580Z,22.33
2018-04-16T12:10:37.141Z,15.53
2018-04-16T12:13:04.686Z,17.67
2018-04-16T12:15:33.000Z,19.50
2018-04-16T12:18:00.590Z,19.40
2018-04-16T12:20:28.135Z,15.93
2018-04-16T12:22:55.661Z,19.63
2018-04-16T12:25:23.218Z,17.67
2018-04-16T12:27:50.783Z,17.60
2018-04-16T12:30:18.344Z,14.20
2018-04-16T12:32:45.872Z,15.30
2018-04-16T12:35:14.244Z,14.73
2018-04-16T12:37:41.795Z,16.57
2018-04-16T12:40:11.948Z,14.63
2018-04-16T12:42:40.258Z,17.30
2018-04-16T12:45:07.857Z,14.27
2018-04-16T12:47:35.383Z,16.27
2018-04-16T12:50:02.953Z,14.27
2018-04-16T12:52:31.272Z,12.57
2018-04-16T12:54:59.606Z,14.17
2018-04-16T12:57:27.236Z,15.23
2018-04-16T12:59:54.789Z,17.63
2018-04-16T13:02:22.344Z,11.77
2018-04-16T13:04:49.869Z,16.10
2018-04-16T13:07:17.418Z,10.77
2018-04-16T13:09:44.935Z,14.23
2018-04-16T13:12:12.485Z,14.80
2018-04-16T13:14:40.019Z,15.70
2018-04-16T13:17:08.328Z,12.07
2018-04-16T13:19:35.839Z,11.37
2018-04-16T13:22:03.391Z,14.63
2018-04-16T13:24:30.911Z,10.53
2018-04-16T13:26:58.462Z,10.60
2018-04-16T13:29:25.982Z,9.83
2018-04-16T13:31:53.551Z,10.93
2018-04-16T13:34:21.842Z,13.00
2018-04-16T13:36:50.189Z,7.83
2018-04-16T13:39:17.708Z,13.10
2018-04-16T13:41:45.203Z,6.60
2018-04-16T13:44:12.748Z,6.93
2018-04-16T13:46:40.268Z,10.57
2018-04-16T13:49:07.881Z,7.63
2018-04-16T13:51:35.489Z,6.67
2018-04-16T13:54:04.227Z,7.87
2018-04-16T13:56:31.748Z,6.57
2018-04-16T13:58:59.287Z,7.53
2018-04-16T14:01:26.791Z,9.60
2018-04-16T14:03:54.359Z,8.17
2018-04-16T14:06:21.896Z,7.43
2018-04-16T14:08:49.463Z,6.87
2018-04-16T14:11:17.026Z,11.73
2018-04-16T14:13:44.592Z,10.53
2018-04-16T14:16:12.120Z,5.47
2018-04-16T14:18:39.672Z,8.40
2018-04-16T14:21:07.201Z,8.33
2018-04-16T14:23:35.544Z,8.50
2018-04-16T14:26:03.043Z,10.30
2018-04-16T14:28:31.332Z,8.47
2018-04-16T14:30:58.881Z,8.33
2018-04-16T14:33:26.388Z,8.13
2018-04-16T14:35:53.948Z,11.00
2018-04-16T14:38:21.479Z,6.80
2018-04-16T14:40:49.028Z,4.50
2018-04-16T14:43:16.562Z,5.70
2018-04-16T14:45:44.104Z,6.90
2018-04-16T14:48:11.616Z,5.73
2018-04-16T14:50:40.006Z,5.30
2018-04-16T14:53:07.534Z,6.90
2018-04-16T14:55:35.848Z,4.53
2018-04-16T14:58:03.386Z,5.60
2018-04-16T15:00:30.932Z,6.87
2018-04-16T15:02:59.216Z,6.80
2018-04-16T15:05:27.522Z,8.73
2018-04-16T15:07:55.023Z,7.37
2018-04-16T15:10:22.591Z,7.30
2018-04-16T15:12:50.099Z,7.50
2018-04-16T15:15:17.596Z,4.97
2018-04-16T15:17:45.122Z,6.87
2018-04-16T15:20:12.641Z,4.77
2018-04-16T15:22:40.950Z,7.23
2018-04-16T15:25:08.472Z,4.43
2018-04-16T15:27:36.013Z,5.37
2018-04-16T15:30:03.841Z,10.00
2018-04-16T15:32:31.411Z,7.43
2018-04-16T15:34:58.927Z,4.67
2018-04-16T15:37:27.250Z,3.40
2018-04-16T15:39:54.751Z,8.63
2018-04-16T15:42:23.084Z,9.23
2018-04-16T15:44:50.605Z,10.93
2018-04-16T15:47:18.186Z,15.73
2018-04-16T15:49:45.696Z,12.87
2018-04-16T15:52:13.273Z,16.77
2018-04-16T15:54:41.555Z,24.80
2018-04-16T15:57:09.128Z,15.50
2018-04-16T15:59:36.659Z,18.20
2018-04-16T16:02:04.959Z,13.07
2018-04-16T16:04:32.507Z,8.87
2018-04-16T16:07:00.056Z,10.63
2018-04-16T16:09:28.375Z,10.27
2018-04-16T16:11:55.905Z,10.67
2018-04-16T16:14:23.454Z,8.27
2018-04-16T16:16:51.753Z,14.60
2018-04-16T16:19:19.327Z,11.63
2018-04-16T16:21:46.859Z,8.20
2018-04-16T16:24:15.171Z,10.10
2018-04-16T16:26:42.698Z,9.97
2018-04-16T16:29:10.249Z,8.63
2018-04-16T16:31:38.534Z,12.13
2018-04-16T16:34:06.849Z,8.40
2018-04-16T16:36:34.380Z,9.70
2018-04-16T16:39:01.939Z,6.80
2018-04-16T16:41:29.452Z,11.00
2018-04-16T16:43:57.361Z,9.37
2018-04-16T16:46:24.925Z,8.70
2018-04-16T16:48:52.452Z,10.53
2018-04-16T16:51:20.809Z,9.90
2018-04-16T16:53:48.348Z,6.53
2018-04-16T16:56:15.892Z,7.10
2018-04-16T16:58:43.408Z,12.73
2018-04-16T17:01:10.984Z,8.67
2018-04-16T17:03:38.500Z,8.77
2018-04-16T17:06:06.051Z,6.33
2018-04-16T17:08:33.618Z,8.13
2018-04-16T17:11:01.161Z,8.97
2018-04-16T17:13:28.687Z,9.57
2018-04-16T17:15:57.016Z,11.17
2018-04-16T17:18:24.528Z,9.53
2018-04-16T17:20:52.106Z,10.10
2018-04-16T17:23:19.664Z,10.57
2018-04-16T17:25:47.228Z,6.90
2018-04-16T17:28:14.756Z,5.47
2018-04-16T17:30:43.537Z,7.43
2018-04-16T17:33:11.827Z,6.57
2018-04-16T17:35:39.355Z,6.47
2018-04-16T17:38:06.929Z,10.27
2018-04-16T17:40:35.230Z,6.87
2018-04-16T17:43:03.209Z,6.13
2018-04-16T17:45:30.719Z,7.47
2018-04-16T17:47:58.264Z,10.33
2018-04-16T17:50:25.781Z,6.20
2018-04-16T17:52:53.330Z,8.27
2018-04-16T17:55:20.844Z,5.87
2018-04-16T17:57:48.401Z,7.17
2018-04-16T18:00:15.966Z,8.23
2018-04-16T18:02:43.492Z,4.40
2018-04-16T18:05:11.037Z,9.03
2018-04-16T18:07:38.592Z,7.33
2018-04-16T18:10:06.096Z,8.23
2018-04-16T18:12:33.632Z,4.60
2018-04-16T18:15:01.164Z,6.03
2018-04-16T18:17:28.720Z,9.03
2018-04-16T18:19:57.040Z,4.47
2018-04-16T18:22:24.563Z,7.27
2018-04-16T18:24:52.120Z,5.23
2018-04-16T18:27:19.661Z,2.77
2018-04-16T18:29:47.240Z,7.63
2018-04-16T18:32:14.750Z,7.77
2018-04-16T18:34:42.308Z,7.73
2018-04-16T18:37:09.827Z,7.77
2018-04-16T18:39:37.668Z,8.63
2018-04-16T18:42:05.961Z,6.73
2018-04-16T18:44:33.541Z,7.27
2018-04-16T18:47:01.055Z,6.13
2018-04-16T18:49:28.612Z,4.23
2018-04-16T18:51:56.134Z,9.33
2018-04-16T18:54:23.692Z,5.43
2018-04-16T18:56:51.237Z,6.43
2018-04-16T18:59:18.797Z,2.93
2018-04-16T19:01:46.321Z,5.07
2018-04-16T19:04:13.871Z,6.43
2018-04-16T19:06:41.403Z,5.70
2018-04-16T19:09:11.565Z,4.50
2018-04-16T19:11:39.079Z,7.43
2018-04-16T19:14:07.379Z,4.87
2018-04-16T19:16:34.938Z,6.83
2018-04-16T19:19:02.493Z,5.47
2018-04-16T19:21:35.816Z,8.37
2018-04-16T19:24:03.321Z,8.93
2018-04-16T19:26:30.861Z,3.23
2018-04-16T19:28:58.376Z,2.93
2018-04-16T19:31:26.483Z,5.97
2018-04-16T19:33:59.658Z,3.97
2018-04-16T19:36:27.209Z,3.83
2018-04-16T19:38:55.498Z,2.97
2018-04-16T19:41:23.055Z,4.50
2018-04-16T19:43:50.595Z,2.97
2018-04-16T19:46:18.149Z,5.30
2018-04-16T19:48:52.050Z,3.90
2018-04-16T19:51:19.568Z,4.27
2018-04-16T19:53:47.080Z,3.83
2018-04-16T19:56:20.183Z,3.43
2018-04-16T19:58:47.715Z,3.63
2018-04-16T20:01:15.275Z,2.50
2018-04-16T20:03:48.393Z,4.77
2018-04-16T20:06:15.962Z,4.90
2018-04-16T20:08:44.233Z,5.17
2018-04-16T20:11:12.545Z,3.60
2018-04-16T20:13:40.116Z,4.23
2018-04-16T20:16:07.701Z,4.83
2018-04-16T20:18:35.242Z,7.27
2018-04-16T20:21:02.852Z,10.07
2018-04-16T20:23:30.456Z,6.07
2018-04-16T20:25:58.002Z,4.10
2018-04-16T20:28:26.336Z,7.57
2018-04-16T20:30:53.857Z,4.53
2018-04-16T20:33:21.427Z,7.27
2018-04-16T20:35:49.755Z,8.10
2018-04-16T20:38:17.311Z,8.37
2018-04-16T20:40:44.884Z,7.60
2018-04-16T20:43:12.477Z,6.07
2018-04-16T20:45:40.008Z,10.60
2018-04-16T20:48:07.577Z,7.63
2018-04-16T20:50:35.120Z,7.07
2018-04-16T20:53:02.696Z,8.93
2018-04-16T20:55:30.242Z,7.00
2018-04-16T20:57:57.822Z,7.67
2018-04-16T21:00:25.370Z,9.87
2018-04-16T21:02:52.935Z,9.20
2018-04-16T21:05:20.547Z,11.07
2018-04-16T21:12:54.729Z,9.70
2018-04-16T21:15:22.288Z,9.93
2018-04-16T21:17:49.802Z,11.23
2018-04-16T21:20:17.378Z,12.93
2018-04-16T21:22:45.667Z,12.73
2018-04-16T21:25:13.220Z,11.57
2018-04-16T21:27:41.503Z,12.50
2018-04-16T21:30:09.845Z,13.73
2018-04-16T21:32:37.366Z,12.30
2018-04-16T21:35:04.923Z,13.13
2018-04-16T21:37:32.441Z,13.17
2018-04-16T21:40:00.000Z,14.40
2018-04-16T21:42:27.513Z,15.20
2018-04-16T21:44:55.067Z,12.80
2018-04-16T21:47:22.594Z,17.00
2018-04-16T21:49:50.908Z,13.93
2018-04-16T21:52:20.073Z,14.30
2018-04-16T21:54:48.419Z,15.33
2018-04-16T21:57:15.955Z,15.03
2018-04-16T21:59:43.505Z,12.83
2018-04-16T22:02:11.078Z,13.93
2018-04-16T22:04:38.664Z,15.33
2018-04-16T22:07:06.202Z,14.40
2018-04-16T22:09:33.741Z,13.57
2018-04-16T22:12:01.313Z,14.87
2018-04-16T22:14:29.621Z,15.30
2018-04-16T22:16:57.189Z,14.13
2018-04-16T22:19:24.735Z,15.57
2018-04-16T22:21:52.303Z,14.43
2018-04-16T22:24:19.850Z,14.60
2018-04-16T22:26:47.438Z,14.07
2018-04-16T22:29:15.723Z,14.33
2018-04-16T22:31:44.068Z,14.93
2018-04-16T22:34:11.599Z,15.83
2018-04-16T22:36:39.163Z,14.90
2018-04-16T22:39:06.731Z,19.33
2018-04-16T22:41:34.245Z,17.33
2018-04-16T22:44:01.819Z,14.53
2018-04-16T22:46:29.384Z,15.30
2018-04-16T22:48:56.958Z,16.23
2018-04-16T22:51:24.505Z,15.13
2018-04-16T22:53:52.074Z,17.23
2018-04-16T22:56:19.614Z,15.30
2018-04-16T22:58:47.174Z,15.47
2018-04-16T23:01:15.473Z,15.77
2018-04-16T23:03:43.060Z,15.50
2018-04-16T23:06:10.604Z,15.03
2018-04-16T23:08:38.940Z,15.37
2018-04-16T23:11:06.495Z,15.37
2018-04-16T23:13:34.062Z,14.13
2018-04-16T23:16:01.696Z,14.57
2018-04-16T23:18:30.036Z,13.87
2018-04-16T23:20:57.577Z,14.77
2018-04-16T23:23:25.156Z,15.20
2018-04-16T23:25:52.680Z,13.90
2018-04-16T23:28:20.226Z,15.07
2018-04-16T23:30:47.797Z,13.13
2018-04-16T23:33:15.342Z,14.70
2018-04-16T23:35:42.918Z,16.30
2018-04-16T23:38:10.464Z,14.70
2018-04-16T23:40:41.369Z,14.37
2018-04-16T23:43:08.889Z,18.53
2018-04-16T23:45:36.455Z,14.17
2018-04-16T23:48:03.984Z,15.73
2018-04-16T23:50:31.589Z,15.37
2018-04-16T23:52:59.105Z,15.10
2018-04-16T23:55:26.690Z,14.57
2018-04-16T23:57:54.206Z,14.27
